Time;durP1;ratioP1;P1;durP2;ratioP2;P2;SDS_P1;SDS_P2;PMS_P1;PMS_P2;Temp;Humidity;BMP_temperature;BMP_pressure;BME280_temperature;BME280_humidity;BME280_pressure;Samples;Min_cycle;Max_cycle;Signal;HPM_P1;HPM_P2
2023/01/31 00:02:08;;;;;;;28.55;4.25;;;;;;;;;;6200410;23;20115;-75
2023/01/31 00:04:34;;;;;;;27.10;4.57;;;;;;;;;;6206728;23;20016;-75
2023/01/31 00:07:00;;;;;;;35.75;5.07;;;;;;;;;;6241746;23;20482;-75
2023/01/31 00:09:26;;;;;;;36.05;4.72;;;;;;;;;;6210479;23;20036;-74
2023/01/31 00:11:52;;;;;;;24.13;3.72;;;;;;;;;;6219749;23;20104;-73
2023/01/31 00:14:19;;;;;;;26.15;3.60;;;;;;;;;;6220254;22;20095;-75
2023/01/31 00:16:46;;;;;;;27.65;4.15;;;;;;;;;;6212015;23;20185;-74
2023/01/31 00:19:12;;;;;;;23.88;3.88;;;;;;;;;;6174640;23;20612;-74
2023/01/31 00:21:42;;;;;;;24.83;3.47;;;;;;;;;;6200158;23;20149;-74
2023/01/31 00:24:08;;;;;;;25.55;3.20;;;;;;;;;;6228378;23;20012;-74
2023/01/31 00:26:35;;;;;;;31.83;4.25;;;;;;;;;;6173555;23;20023;-74
2023/01/31 00:29:02;;;;;;;31.45;4.72;;;;;;;;;;6224039;23;20020;-74
2023/01/31 00:31:29;;;;;;;31.40;4.15;;;;;;;;;;6172916;23;20020;-74
2023/01/31 00:33:56;;;;;;;31.85;3.70;;;;;;;;;;6173240;23;20036;-75
2023/01/31 00:36:23;;;;;;;24.23;3.95;;;;;;;;;;6224606;23;20035;-75
2023/01/31 00:38:53;;;;;;;28.17;4.72;;;;;;;;;;6192978;23;20027;-75
2023/01/31 00:41:20;;;;;;;31.05;5.88;;;;;;;;;;6192274;23;20465;-75
2023/01/31 00:43:47;;;;;;;28.65;3.63;;;;;;;;;;6192943;23;20012;-75
2023/01/31 00:46:13;;;;;;;42.80;4.60;;;;;;;;;;6194482;23;20072;-75
2023/01/31 00:48:39;;;;;;;35.10;5.00;;;;;;;;;;6193790;23;20503;-75
2023/01/31 00:51:05;;;;;;;41.63;4.35;;;;;;;;;;6193594;23;20016;-75
2023/01/31 00:53:31;;;;;;;41.03;6.70;;;;;;;;;;6194046;23;20017;-76
2023/01/31 00:56:03;;;;;;;32.72;4.50;;;;;;;;;;6193970;23;20797;-75
2023/01/31 00:58:29;;;;;;;37.67;4.63;;;;;;;;;;6194153;23;20099;-75
2023/01/31 01:00:56;;;;;;;31.58;4.38;;;;;;;;;;6194125;23;20507;-75
2023/01/31 01:03:22;;;;;;;32.13;3.92;;;;;;;;;;6194430;23;20043;-75
2023/01/31 01:05:48;;;;;;;30.75;4.07;;;;;;;;;;6192603;23;20017;-75
2023/01/31 01:08:14;;;;;;;27.67;4.57;;;;;;;;;;6192973;23;20027;-75
2023/01/31 01:10:40;;;;;;;27.77;4.00;;;;;;;;;;6169734;23;20112;-75
2023/01/31 01:13:06;;;;;;;35.58;3.85;;;;;;;;;;6195322;23;20028;-75
2023/01/31 01:15:32;;;;;;;25.27;4.20;;;;;;;;;;6199590;23;20053;-75
2023/01/31 01:17:58;;;;;;;36.20;4.63;;;;;;;;;;6179347;23;20021;-75
2023/01/31 01:20:24;;;;;;;29.10;3.35;;;;;;;;;;6211880;23;20094;-76
2023/01/31 01:22:51;;;;;;;30.35;3.70;;;;;;;;;;6180915;23;20193;-75
2023/01/31 01:25:17;;;;;;;29.33;4.55;;;;;;;;;;6199097;23;20017;-75
2023/01/31 01:27:43;;;;;;;26.98;4.43;;;;;;;;;;6197348;23;20090;-73
2023/01/31 01:30:10;;;;;;;29.00;3.70;;;;;;;;;;6194454;23;20081;-74
2023/01/31 01:32:36;;;;;;;28.40;4.28;;;;;;;;;;6193682;23;20024;-74
2023/01/31 01:35:02;;;;;;;32.67;4.32;;;;;;;;;;6193727;23;20027;-74
2023/01/31 01:37:29;;;;;;;30.13;3.33;;;;;;;;;;6192467;23;20059;-74
2023/01/31 01:39:55;;;;;;;30.38;3.40;;;;;;;;;;6191766;23;20032;-75
2023/01/31 01:42:22;;;;;;;40.90;4.60;;;;;;;;;;6186506;23;20025;-74
2023/01/31 01:44:51;;;;;;;30.88;4.05;;;;;;;;;;6188234;23;20792;-74
2023/01/31 01:47:36;;;;;;;42.08;4.50;;;;;;;;;;6189805;23;20017;-74
2023/01/31 01:50:17;;;;;;;29.45;4.57;;;;;;;;;;6195283;23;20016;-74
2023/01/31 01:53:05;;;;;;;37.47;4.65;;;;;;;;;;6209444;23;20013;-74
2023/01/31 01:55:31;;;;;;;30.08;4.43;;;;;;;;;;6206291;23;20071;-73
2023/01/31 01:58:01;;;;;;;43.38;6.00;;;;;;;;;;6205833;23;20051;-73
2023/01/31 02:00:28;;;;;;;28.95;3.83;;;;;;;;;;6207301;23;20055;-74
2023/01/31 02:02:56;;;;;;;34.45;4.38;;;;;;;;;;6210067;23;20151;-74
2023/01/31 02:05:25;;;;;;;24.90;4.00;;;;;;;;;;6192049;23;20194;-74
2023/01/31 02:07:51;;;;;;;25.35;3.33;;;;;;;;;;6166506;23;20028;-74
2023/01/31 02:10:26;;;;;;;26.58;3.38;;;;;;;;;;6193360;23;20028;-74
2023/01/31 02:12:52;;;;;;;22.10;3.35;;;;;;;;;;6191142;23;20017;-74
2023/01/31 02:15:19;;;;;;;28.27;4.88;;;;;;;;;;6189465;23;20028;-74
2023/01/31 02:17:45;;;;;;;34.65;5.50;;;;;;;;;;6191216;23;20087;-74
2023/01/31 02:20:11;;;;;;;27.85;2.58;;;;;;;;;;6193469;23;20024;-74
2023/01/31 02:22:40;;;;;;;26.13;3.28;;;;;;;;;;6194590;23;20088;-74
2023/01/31 02:25:42;;;;;;;24.83;4.30;;;;;;;;;;6168550;23;20035;-74
2023/01/31 02:28:08;;;;;;;27.15;3.28;;;;;;;;;;6051172;23;20022;-74
2023/01/31 02:30:34;;;;;;;23.77;3.15;;;;;;;;;;6169458;23;20028;-74
2023/01/31 02:33:12;;;;;;;26.60;3.83;;;;;;;;;;6193951;23;20473;-74
2023/01/31 02:36:04;;;;;;;24.02;3.42;;;;;;;;;;6190510;23;20044;-74
2023/01/31 02:38:50;;;;;;;30.00;3.25;;;;;;;;;;6189278;23;20020;-75
2023/01/31 02:41:16;;;;;;;25.25;3.17;;;;;;;;;;6171649;23;20016;-74
2023/01/31 02:46:36;;;;;;;29.02;3.03;;;;;;;;;;6195376;23;20022;-74
2023/01/31 02:49:06;;;;;;;25.13;3.63;;;;;;;;;;6197815;23;20020;-73
2023/01/31 02:51:40;;;;;;;17.33;3.15;;;;;;;;;;6197420;23;20020;-73
2023/01/31 02:54:12;;;;;;;22.75;3.38;;;;;;;;;;6173760;23;20032;-74
2023/01/31 02:56:40;;;;;;;22.02;2.75;;;;;;;;;;6202607;23;20027;-73
2023/01/31 02:59:08;;;;;;;26.83;4.15;;;;;;;;;;6212679;23;20058;-74
2023/01/31 03:01:36;;;;;;;26.40;2.80;;;;;;;;;;6240620;23;20019;-74
2023/01/31 03:04:09;;;;;;;25.13;3.10;;;;;;;;;;6232444;23;20047;-74
2023/01/31 03:06:35;;;;;;;15.95;2.97;;;;;;;;;;6174160;23;20082;-75
2023/01/31 03:09:24;;;;;;;25.10;3.08;;;;;;;;;;6198354;23;20030;-74
2023/01/31 03:12:15;;;;;;;21.42;2.80;;;;;;;;;;6195811;23;20028;-75
2023/01/31 03:14:44;;;;;;;20.88;2.83;;;;;;;;;;6171674;23;20399;-73
2023/01/31 03:17:31;;;;;;;26.95;2.58;;;;;;;;;;6195631;23;20489;-75
2023/01/31 03:20:03;;;;;;;28.90;2.92;;;;;;;;;;6222204;23;20730;-74
2023/01/31 03:22:32;;;;;;;21.33;2.50;;;;;;;;;;6197981;23;20074;-75
2023/01/31 03:24:59;;;;;;;21.10;2.47;;;;;;;;;;6197500;23;20031;-71
2023/01/31 03:27:25;;;;;;;29.60;2.95;;;;;;;;;;6171665;23;20347;-74
2023/01/31 03:29:55;;;;;;;21.20;3.05;;;;;;;;;;6173388;23;20027;-74
2023/01/31 03:32:30;;;;;;;24.50;2.88;;;;;;;;;;6225035;23;20016;-74
2023/01/31 03:34:57;;;;;;;24.40;2.47;;;;;;;;;;6227435;23;20016;-74
2023/01/31 03:37:26;;;;;;;21.17;2.50;;;;;;;;;;6202521;23;20047;-74
2023/01/31 03:40:00;;;;;;;20.88;2.80;;;;;;;;;;6212858;23;20031;-74
2023/01/31 03:42:53;;;;;;;20.63;2.83;;;;;;;;;;6212747;23;20427;-74
2023/01/31 03:45:22;;;;;;;23.38;2.80;;;;;;;;;;6218133;23;20353;-74
2023/01/31 03:47:49;;;;;;;26.27;3.13;;;;;;;;;;6248703;23;20074;-73
2023/01/31 03:50:23;;;;;;;21.13;3.40;;;;;;;;;;6220155;23;20016;-75
2023/01/31 03:52:52;;;;;;;20.15;2.88;;;;;;;;;;6178268;23;20020;-75
2023/01/31 03:55:24;;;;;;;17.90;2.97;;;;;;;;;;6227269;23;20015;-74
2023/01/31 03:57:51;;;;;;;20.35;3.90;;;;;;;;;;6175899;23;20012;-74
2023/01/31 04:00:19;;;;;;;15.85;2.35;;;;;;;;;;6202107;23;20024;-73
2023/01/31 04:02:48;;;;;;;22.40;3.33;;;;;;;;;;6227700;23;20020;-74
2023/01/31 04:05:17;;;;;;;20.60;4.05;;;;;;;;;;6201472;23;20374;-74
2023/01/31 04:07:44;;;;;;;19.52;2.60;;;;;;;;;;6201236;23;20114;-74
2023/01/31 04:10:12;;;;;;;23.40;2.83;;;;;;;;;;6201188;23;20114;-73
2023/01/31 04:12:39;;;;;;;18.70;2.75;;;;;;;;;;6176901;23;20047;-74
2023/01/31 04:15:05;;;;;;;21.42;3.08;;;;;;;;;;6198134;23;20070;-74
2023/01/31 04:17:32;;;;;;;23.40;2.40;;;;;;;;;;6227171;23;20023;-74
2023/01/31 04:19:58;;;;;;;25.13;3.67;;;;;;;;;;6198506;23;20020;-74
2023/01/31 04:22:24;;;;;;;19.23;2.65;;;;;;;;;;6174434;23;20042;-74
2023/01/31 04:24:51;;;;;;;21.25;3.47;;;;;;;;;;6199685;23;20020;-74
2023/01/31 04:27:17;;;;;;;28.77;3.25;;;;;;;;;;6223881;23;20043;-74
2023/01/31 04:29:43;;;;;;;10.88;2.13;;;;;;;;;;6196730;23;20751;-74
2023/01/31 04:32:09;;;;;;;20.98;3.17;;;;;;;;;;6226406;23;20091;-73
2023/01/31 04:34:35;;;;;;;23.33;3.25;;;;;;;;;;6226291;23;20035;-75
2023/01/31 04:37:01;;;;;;;13.60;2.97;;;;;;;;;;6197891;23;20062;-74
2023/01/31 04:39:27;;;;;;;28.17;3.80;;;;;;;;;;6202198;23;20070;-74
2023/01/31 04:41:53;;;;;;;25.25;3.22;;;;;;;;;;6184065;23;20052;-75
2023/01/31 04:44:19;;;;;;;32.45;4.82;;;;;;;;;;6240508;23;20135;-75
2023/01/31 04:46:45;;;;;;;26.23;3.75;;;;;;;;;;6205963;23;20020;-74
2023/01/31 04:49:12;;;;;;;25.50;4.97;;;;;;;;;;6230946;23;20040;-74
2023/01/31 04:51:38;;;;;;;23.00;3.67;;;;;;;;;;6228301;23;20456;-75
2023/01/31 04:54:04;;;;;;;27.10;3.35;;;;;;;;;;6227075;23;20047;-74
2023/01/31 04:56:31;;;;;;;25.08;4.20;;;;;;;;;;6226770;23;20411;-75
2023/01/31 04:58:57;;;;;;;32.67;5.45;;;;;;;;;;6223504;23;20016;-74
2023/01/31 05:01:23;;;;;;;28.83;3.63;;;;;;;;;;6198978;23;20020;-74
2023/01/31 05:03:49;;;;;;;21.88;3.35;;;;;;;;;;6197490;23;20178;-74
2023/01/31 05:06:15;;;;;;;24.85;3.47;;;;;;;;;;6197340;23;20020;-74
2023/01/31 05:08:41;;;;;;;19.20;2.80;;;;;;;;;;6226013;23;20027;-74
2023/01/31 05:11:08;;;;;;;21.50;3.30;;;;;;;;;;6197054;23;20016;-74
2023/01/31 05:13:37;;;;;;;20.13;3.25;;;;;;;;;;6198865;23;20020;-74
2023/01/31 05:16:07;;;;;;;26.10;4.10;;;;;;;;;;6177317;23;20082;-73
2023/01/31 05:18:37;;;;;;;32.97;4.35;;;;;;;;;;6198992;23;20024;-74
2023/01/31 05:21:03;;;;;;;27.20;4.22;;;;;;;;;;6202640;23;20128;-75
2023/01/31 05:23:30;;;;;;;30.15;4.05;;;;;;;;;;6237598;23;20015;-75
2023/01/31 05:25:57;;;;;;;26.05;4.65;;;;;;;;;;6212295;23;20016;-75
2023/01/31 05:28:24;;;;;;;26.80;4.70;;;;;;;;;;6215889;23;20016;-75
2023/01/31 05:30:51;;;;;;;32.30;5.13;;;;;;;;;;6214100;23;20024;-74
2023/01/31 05:33:19;;;;;;;28.58;4.85;;;;;;;;;;6221132;23;20699;-74
2023/01/31 05:35:45;;;;;;;17.02;3.95;;;;;;;;;;6199103;23;20020;-75
2023/01/31 05:38:12;;;;;;;24.30;4.55;;;;;;;;;;6185393;23;20046;-74
2023/01/31 05:40:38;;;;;;;33.85;4.70;;;;;;;;;;6176137;23;20759;-74
2023/01/31 05:43:04;;;;;;;31.00;5.95;;;;;;;;;;6198854;23;20115;-75
2023/01/31 05:45:30;;;;;;;27.75;3.72;;;;;;;;;;6196526;23;20047;-73
2023/01/31 05:47:57;;;;;;;29.15;4.35;;;;;;;;;;6175132;23;20023;-73
2023/01/31 05:50:23;;;;;;;32.08;6.10;;;;;;;;;;6199330;23;20786;-73
2023/01/31 05:52:49;;;;;;;31.50;4.93;;;;;;;;;;6225452;23;20022;-74
2023/01/31 05:55:16;;;;;;;25.08;4.88;;;;;;;;;;6200264;23;20384;-73
2023/01/31 05:57:42;;;;;;;37.05;6.53;;;;;;;;;;6196060;23;20028;-74
2023/01/31 06:00:08;;;;;;;32.35;5.43;;;;;;;;;;6200265;23;20103;-74
2023/01/31 06:02:34;;;;;;;23.85;4.70;;;;;;;;;;6200657;23;20020;-74
2023/01/31 06:05:00;;;;;;;29.02;4.68;;;;;;;;;;6175985;23;20030;-74
2023/01/31 06:07:26;;;;;;;35.05;6.07;;;;;;;;;;6174234;23;20342;-75
2023/01/31 06:09:52;;;;;;;36.97;5.70;;;;;;;;;;6199749;23;20167;-75
2023/01/31 06:12:18;;;;;;;22.73;4.15;;;;;;;;;;6227376;23;20027;-75
2023/01/31 06:14:45;;;;;;;29.23;5.05;;;;;;;;;;6175226;23;20457;-74
2023/01/31 06:17:14;;;;;;;21.13;3.88;;;;;;;;;;6231069;23;20070;-75
2023/01/31 06:19:40;;;;;;;35.35;5.75;;;;;;;;;;6241244;23;20024;-75
2023/01/31 06:22:06;;;;;;;24.52;3.63;;;;;;;;;;6215139;23;20150;-75
2023/01/31 06:24:32;;;;;;;28.33;4.38;;;;;;;;;;6208134;23;20020;-75
2023/01/31 06:26:58;;;;;;;30.25;5.65;;;;;;;;;;6217659;23;20016;-74
2023/01/31 06:29:24;;;;;;;35.72;5.55;;;;;;;;;;6201061;23;20016;-74
2023/01/31 06:31:52;;;;;;;22.77;2.97;;;;;;;;;;6194379;23;20086;-75
2023/01/31 06:34:18;;;;;;;27.00;4.18;;;;;;;;;;6222571;23;20056;-75
2023/01/31 06:36:44;;;;;;;31.10;5.10;;;;;;;;;;6196274;23;20095;-76
2023/01/31 06:39:12;;;;;;;27.65;4.72;;;;;;;;;;6193768;23;20023;-75
2023/01/31 06:41:38;;;;;;;23.83;3.97;;;;;;;;;;6198475;23;20028;-75
2023/01/31 06:44:04;;;;;;;30.00;6.10;;;;;;;;;;6229388;23;20785;-75
2023/01/31 06:46:30;;;;;;;35.42;4.53;;;;;;;;;;6202885;23;20019;-75
2023/01/31 06:48:56;;;;;;;21.23;3.67;;;;;;;;;;6196196;23;20390;-75
2023/01/31 06:51:23;;;;;;;37.97;5.80;;;;;;;;;;6193002;23;20119;-74
2023/01/31 06:53:51;;;;;;;27.13;4.55;;;;;;;;;;6193690;23;20046;-74
2023/01/31 06:56:17;;;;;;;29.42;5.90;;;;;;;;;;6194155;23;20339;-74
2023/01/31 06:58:43;;;;;;;23.77;4.45;;;;;;;;;;6197106;23;20026;-74
2023/01/31 07:01:10;;;;;;;33.42;5.28;;;;;;;;;;6197077;23;20125;-75
2023/01/31 07:03:36;;;;;;;28.65;4.63;;;;;;;;;;6173787;23;20167;-75
2023/01/31 07:06:02;;;;;;;33.75;5.97;;;;;;;;;;6205988;23;20481;-75
2023/01/31 07:08:29;;;;;;;25.70;4.28;;;;;;;;;;6212560;23;20027;-75
2023/01/31 07:10:56;;;;;;;31.65;4.53;;;;;;;;;;6238983;23;20069;-75
2023/01/31 07:13:22;;;;;;;29.35;4.90;;;;;;;;;;6219121;23;20020;-75
2023/01/31 07:15:48;;;;;;;29.77;5.53;;;;;;;;;;6223837;23;20066;-75
2023/01/31 07:18:15;;;;;;;31.77;4.35;;;;;;;;;;6201071;23;20020;-75
2023/01/31 07:20:41;;;;;;;31.00;4.20;;;;;;;;;;6200938;23;20813;-75
2023/01/31 07:23:08;;;;;;;22.52;4.43;;;;;;;;;;6201052;23;20788;-75
2023/01/31 07:25:35;;;;;;;26.70;4.93;;;;;;;;;;6228535;23;20481;-75
2023/01/31 07:28:01;;;;;;;36.60;6.38;;;;;;;;;;6201389;23;20020;-75
2023/01/31 07:30:27;;;;;;;24.40;4.70;;;;;;;;;;6228970;23;20027;-76
2023/01/31 07:32:53;;;;;;;26.40;5.68;;;;;;;;;;6203351;23;20073;-76
2023/01/31 07:35:20;;;;;;;33.20;5.15;;;;;;;;;;6202140;23;20023;-76
2023/01/31 07:37:46;;;;;;;22.77;5.68;;;;;;;;;;6229580;23;20594;-74
2023/01/31 07:40:13;;;;;;;19.33;4.28;;;;;;;;;;6227778;23;20095;-76
2023/01/31 07:42:40;;;;;;;22.20;4.13;;;;;;;;;;6198350;23;20016;-75
2023/01/31 07:45:07;;;;;;;15.85;4.13;;;;;;;;;;6199304;23;20118;-75
2023/01/31 07:47:33;;;;;;;31.83;5.30;;;;;;;;;;6199810;23;20054;-75
2023/01/31 07:49:59;;;;;;;23.10;4.97;;;;;;;;;;6230573;23;20020;-75
2023/01/31 07:52:25;;;;;;;29.38;4.03;;;;;;;;;;6212125;23;20103;-75
2023/01/31 07:54:51;;;;;;;20.05;4.00;;;;;;;;;;6215935;23;20074;-76
2023/01/31 07:57:17;;;;;;;18.25;4.05;;;;;;;;;;6210412;23;20504;-75
2023/01/31 07:59:44;;;;;;;23.20;3.80;;;;;;;;;;6206561;23;20020;-76
2023/01/31 08:04:59;;;;;;;23.45;3.53;;;;;;;;;;6228863;23;20020;-75
2023/01/31 08:07:25;;;;;;;27.77;4.57;;;;;;;;;;6175293;23;20111;-76
2023/01/31 08:09:51;;;;;;;18.85;4.53;;;;;;;;;;6204854;23;20020;-76
2023/01/31 08:12:17;;;;;;;21.33;3.67;;;;;;;;;;6205224;23;20024;-76
2023/01/31 08:14:44;;;;;;;25.33;4.05;;;;;;;;;;6205074;23;20020;-76
2023/01/31 08:17:10;;;;;;;25.80;3.45;;;;;;;;;;6205785;23;20091;-76
2023/01/31 08:19:37;;;;;;;17.88;3.42;;;;;;;;;;6232503;23;20012;-76
2023/01/31 08:22:03;;;;;;;16.90;3.42;;;;;;;;;;6204318;23;20020;-76
2023/01/31 08:24:30;;;;;;;30.08;4.88;;;;;;;;;;6231489;23;20015;-76
2023/01/31 08:26:56;;;;;;;20.58;3.20;;;;;;;;;;6203676;23;20016;-76
2023/01/31 08:29:23;;;;;;;22.30;3.85;;;;;;;;;;6202338;23;20091;-75
2023/01/31 08:31:49;;;;;;;15.95;3.38;;;;;;;;;;6202461;23;20027;-76
2023/01/31 08:34:15;;;;;;;16.98;2.58;;;;;;;;;;6205200;23;20051;-76
2023/01/31 08:36:42;;;;;;;13.88;2.65;;;;;;;;;;6204823;23;20016;-77
2023/01/31 08:39:08;;;;;;;17.65;3.17;;;;;;;;;;6207853;23;20043;-79
2023/01/31 08:41:35;;;;;;;18.52;2.92;;;;;;;;;;6184801;23;20024;-78
2023/01/31 08:44:02;;;;;;;23.30;3.53;;;;;;;;;;6217487;23;20016;-77
2023/01/31 08:46:30;;;;;;;31.55;4.95;;;;;;;;;;6216538;23;20314;-79
2023/01/31 08:48:56;;;;;;;24.77;4.60;;;;;;;;;;6250912;23;20028;-78
2023/01/31 08:51:22;;;;;;;22.52;4.03;;;;;;;;;;6224705;23;20036;-77
2023/01/31 08:53:49;;;;;;;18.65;3.10;;;;;;;;;;6213826;23;20020;-78
2023/01/31 08:56:15;;;;;;;23.55;3.78;;;;;;;;;;6203842;23;20094;-77
2023/01/31 08:58:42;;;;;;;24.60;4.05;;;;;;;;;;6179436;23;20054;-78
2023/01/31 09:01:13;;;;;;;25.80;4.53;;;;;;;;;;6202974;23;20024;-78
2023/01/31 09:03:39;;;;;;;29.08;4.20;;;;;;;;;;6203361;23;20027;-78
2023/01/31 09:06:07;;;;;;;18.35;3.83;;;;;;;;;;6203849;23;20589;-78
2023/01/31 09:08:33;;;;;;;26.70;3.78;;;;;;;;;;6204538;23;20051;-79
2023/01/31 09:10:59;;;;;;;18.70;3.30;;;;;;;;;;6202854;23;20023;-78
2023/01/31 09:13:26;;;;;;;25.88;5.05;;;;;;;;;;6229845;23;20868;-78
2023/01/31 09:16:03;;;;;;;32.63;4.20;;;;;;;;;;6205247;23;20078;-77
2023/01/31 09:18:29;;;;;;;31.25;3.67;;;;;;;;;;6232776;23;20060;-78
2023/01/31 09:20:55;;;;;;;20.83;3.42;;;;;;;;;;6205724;23;20051;-78
2023/01/31 09:23:22;;;;;;;17.27;3.47;;;;;;;;;;6233662;23;20020;-77
2023/01/31 09:25:52;;;;;;;24.52;4.00;;;;;;;;;;6210689;23;20020;-78
2023/01/31 09:28:18;;;;;;;25.45;4.47;;;;;;;;;;6211186;23;20016;-79
2023/01/31 09:30:44;;;;;;;22.38;4.22;;;;;;;;;;6234910;23;20024;-79
2023/01/31 09:33:10;;;;;;;29.90;4.28;;;;;;;;;;6182759;23;20462;-78
2023/01/31 09:35:37;;;;;;;17.05;3.40;;;;;;;;;;6232617;23;20342;-78
2023/01/31 09:38:03;;;;;;;31.60;4.90;;;;;;;;;;6205414;23;20111;-78
2023/01/31 09:40:30;;;;;;;21.77;3.88;;;;;;;;;;6200337;23;20040;-78
2023/01/31 09:42:57;;;;;;;26.15;4.97;;;;;;;;;;6200110;23;20490;-78
2023/01/31 09:45:26;;;;;;;19.75;3.30;;;;;;;;;;6199915;23;20020;-78
2023/01/31 09:47:54;;;;;;;19.33;3.03;;;;;;;;;;6200378;23;20020;-78
2023/01/31 09:50:20;;;;;;;22.90;4.40;;;;;;;;;;6201363;23;20012;-78
2023/01/31 09:52:46;;;;;;;26.15;4.03;;;;;;;;;;6201358;23;20017;-79
2023/01/31 09:55:16;;;;;;;20.75;4.57;;;;;;;;;;6200496;23;20021;-79
2023/01/31 09:57:50;;;;;;;20.60;4.28;;;;;;;;;;6175324;23;20450;-78
2023/01/31 10:00:52;;;;;;;19.13;4.00;;;;;;;;;;6200084;23;20442;-77
2023/01/31 10:03:21;;;;;;;23.17;2.70;;;;;;;;;;6054955;23;20018;-77
2023/01/31 10:05:50;;;;;;;23.73;3.33;;;;;;;;;;6177490;23;20016;-77
2023/01/31 10:08:35;;;;;;;24.20;3.65;;;;;;;;;;6201399;23;20059;-77
2023/01/31 10:11:03;;;;;;;27.45;4.00;;;;;;;;;;6199040;23;20021;-78
2023/01/31 10:13:38;;;;;;;39.13;5.30;;;;;;;;;;6197641;23;20031;-79
2023/01/31 10:16:09;;;;;;;24.35;4.15;;;;;;;;;;6200589;23;20724;-80
2023/01/31 10:18:40;;;;;;;18.75;4.20;;;;;;;;;;6181323;23;20048;-80
2023/01/31 10:21:09;;;;;;;34.67;4.25;;;;;;;;;;6212710;23;20016;-79
2023/01/31 10:23:45;;;;;;;14.20;3.10;;;;;;;;;;6209750;23;20381;-77
2023/01/31 10:26:18;;;;;;;30.17;3.97;;;;;;;;;;6224672;23;20016;-77
2023/01/31 10:29:10;;;;;;;28.92;3.67;;;;;;;;;;6222004;23;20019;-76
2023/01/31 10:31:41;;;;;;;28.65;4.50;;;;;;;;;;6193032;23;20019;-76
2023/01/31 10:34:10;;;;;;;26.10;4.13;;;;;;;;;;6202067;23;20022;-76
2023/01/31 10:36:48;;;;;;;18.80;3.40;;;;;;;;;;6199994;23;20477;-76
2023/01/31 10:39:18;;;;;;;28.42;4.30;;;;;;;;;;6199822;23;20119;-76
2023/01/31 10:41:59;;;;;;;26.27;3.88;;;;;;;;;;6173208;23;20043;-76
2023/01/31 10:44:43;;;;;;;21.73;3.97;;;;;;;;;;6198070;23;20332;-76
2023/01/31 10:47:16;;;;;;;16.75;3.50;;;;;;;;;;6199030;23;20021;-75
2023/01/31 10:49:47;;;;;;;16.95;3.63;;;;;;;;;;6197703;23;20077;-75
2023/01/31 10:52:27;;;;;;;14.48;3.05;;;;;;;;;;6173627;23;20024;-76
2023/01/31 10:54:53;;;;;;;16.17;3.70;;;;;;;;;;6199102;23;20363;-76
2023/01/31 10:57:19;;;;;;;26.48;4.38;;;;;;;;;;6205942;23;20123;-75
2023/01/31 10:59:46;;;;;;;15.15;3.58;;;;;;;;;;6202982;23;20024;-76
2023/01/31 11:02:20;;;;;;;16.40;3.90;;;;;;;;;;6199714;23;20020;-76
2023/01/31 11:04:46;;;;;;;26.33;4.78;;;;;;;;;;6173759;23;20021;-77
2023/01/31 11:07:12;;;;;;;22.92;4.00;;;;;;;;;;6199828;23;20493;-76
2023/01/31 11:09:43;;;;;;;26.17;4.22;;;;;;;;;;6199830;23;20115;-75
2023/01/31 11:12:09;;;;;;;21.10;4.50;;;;;;;;;;6198154;23;20028;-74
2023/01/31 11:14:35;;;;;;;21.70;5.28;;;;;;;;;;6199800;23;20079;-75
2023/01/31 11:17:05;;;;;;;27.80;4.43;;;;;;;;;;6200469;23;20012;-75
2023/01/31 11:19:31;;;;;;;22.52;3.65;;;;;;;;;;6195862;23;20020;-75
2023/01/31 11:21:57;;;;;;;19.85;3.58;;;;;;;;;;6195988;23;20016;-76
2023/01/31 11:24:24;;;;;;;22.95;4.55;;;;;;;;;;6145977;23;20021;-76
2023/01/31 11:27:00;;;;;;;19.30;4.47;;;;;;;;;;6196528;23;20043;-75
2023/01/31 11:29:29;;;;;;;23.52;3.70;;;;;;;;;;6196640;23;20016;-75
2023/01/31 11:31:56;;;;;;;19.67;4.18;;;;;;;;;;6197117;23;20012;-76
2023/01/31 11:34:24;;;;;;;19.83;3.72;;;;;;;;;;6195836;23;20052;-76
2023/01/31 11:36:50;;;;;;;24.27;4.18;;;;;;;;;;6170714;23;20437;-76
2023/01/31 11:39:22;;;;;;;26.83;5.68;;;;;;;;;;6195635;23;20025;-75
2023/01/31 11:41:48;;;;;;;27.02;4.22;;;;;;;;;;6194104;23;20711;-76
2023/01/31 11:44:16;;;;;;;26.42;4.78;;;;;;;;;;6197705;23;20040;-76
2023/01/31 11:46:44;;;;;;;29.00;5.40;;;;;;;;;;6196488;23;20437;-76
2023/01/31 11:49:19;;;;;;;23.33;3.80;;;;;;;;;;6195602;23;20067;-77
2023/01/31 11:51:45;;;;;;;21.33;3.85;;;;;;;;;;6171380;23;20048;-76
2023/01/31 11:54:18;;;;;;;28.77;4.05;;;;;;;;;;6171532;23;20025;-76
2023/01/31 11:56:45;;;;;;;34.70;5.30;;;;;;;;;;6199384;23;20025;-76
2023/01/31 11:59:15;;;;;;;26.48;4.07;;;;;;;;;;6183177;23;20032;-75
2023/01/31 12:01:45;;;;;;;27.40;3.70;;;;;;;;;;6211243;23;20323;-76
2023/01/31 12:04:16;;;;;;;25.92;5.53;;;;;;;;;;6212694;23;20017;-75
2023/01/31 12:06:54;;;;;;;27.85;4.72;;;;;;;;;;6218792;23;20023;-75
2023/01/31 12:09:22;;;;;;;25.40;3.80;;;;;;;;;;6211476;23;20507;-79
2023/01/31 12:11:51;;;;;;;28.73;4.70;;;;;;;;;;6198225;23;20027;-75
2023/01/31 12:14:20;;;;;;;29.13;4.95;;;;;;;;;;6197158;23;20016;-76
2023/01/31 12:16:48;;;;;;;22.75;3.35;;;;;;;;;;6198739;23;20017;-76
2023/01/31 12:19:21;;;;;;;30.42;4.38;;;;;;;;;;6173589;23;20116;-75
2023/01/31 12:21:59;;;;;;;29.15;4.38;;;;;;;;;;6199065;23;20016;-75
2023/01/31 12:24:36;;;;;;;26.58;2.90;;;;;;;;;;6199813;23;20021;-75
2023/01/31 12:27:21;;;;;;;21.95;3.45;;;;;;;;;;6177639;23;20489;-76
2023/01/31 12:29:47;;;;;;;30.55;4.13;;;;;;;;;;6202821;23;20051;-76
2023/01/31 12:32:43;;;;;;;25.10;4.45;;;;;;;;;;6200236;23;20027;-75
2023/01/31 12:35:21;;;;;;;24.67;4.13;;;;;;;;;;6043267;23;20022;-75
2023/01/31 12:37:56;;;;;;;30.75;4.18;;;;;;;;;;6198400;23;20072;-76
2023/01/31 12:40:41;;;;;;;25.17;3.80;;;;;;;;;;6198647;23;20087;-75
2023/01/31 12:43:13;;;;;;;19.65;3.65;;;;;;;;;;6203794;23;20040;-76
2023/01/31 12:45:58;;;;;;;26.00;4.30;;;;;;;;;;6185987;23;20020;-76
2023/01/31 12:48:40;;;;;;;38.72;6.57;;;;;;;;;;6209926;23;20075;-76
2023/01/31 12:51:17;;;;;;;28.20;3.75;;;;;;;;;;6216464;23;20022;-75
2023/01/31 12:54:01;;;;;;;27.13;4.15;;;;;;;;;;6218644;23;20052;-76
2023/01/31 12:56:40;;;;;;;28.83;4.15;;;;;;;;;;6206105;23;20070;-76
2023/01/31 12:59:25;;;;;;;18.55;4.18;;;;;;;;;;6199673;23;20020;-76
2023/01/31 13:02:10;;;;;;;22.38;4.15;;;;;;;;;;6172861;23;20784;-76
2023/01/31 13:04:36;;;;;;;16.23;3.53;;;;;;;;;;6198961;23;20012;-76
2023/01/31 13:07:04;;;;;;;32.13;4.35;;;;;;;;;;6195348;23;20083;-75
2023/01/31 13:09:31;;;;;;;26.08;4.35;;;;;;;;;;6167910;23;20048;-75
2023/01/31 13:12:00;;;;;;;27.02;4.57;;;;;;;;;;6196292;23;20021;-75
2023/01/31 13:14:28;;;;;;;21.23;3.47;;;;;;;;;;6196830;23;20027;-75
2023/01/31 13:16:57;;;;;;;22.25;3.83;;;;;;;;;;6193822;23;20020;-75
2023/01/31 13:19:42;;;;;;;20.25;3.45;;;;;;;;;;6168246;23;20017;-75
2023/01/31 13:22:29;;;;;;;19.08;3.70;;;;;;;;;;6197164;23;20432;-75
2023/01/31 13:25:12;;;;;;;36.53;5.40;;;;;;;;;;6195982;23;20012;-75
2023/01/31 13:27:39;;;;;;;26.00;5.97;;;;;;;;;;6172948;23;20022;-75
2023/01/31 13:30:26;;;;;;;30.83;4.88;;;;;;;;;;6198367;23;20040;-75
2023/01/31 13:32:54;;;;;;;21.35;3.70;;;;;;;;;;6096035;23;20056;-75
2023/01/31 13:35:24;;;;;;;26.38;3.97;;;;;;;;;;6195416;23;20042;-73
2023/01/31 13:37:53;;;;;;;22.33;5.60;;;;;;;;;;6201585;23;20017;-74
2023/01/31 13:40:24;;;;;;;26.60;4.45;;;;;;;;;;6236671;23;20024;-75
2023/01/31 13:42:52;;;;;;;17.27;3.60;;;;;;;;;;6241453;23;20016;-76
2023/01/31 13:45:33;;;;;;;21.73;5.22;;;;;;;;;;6229531;23;20000;-75
2023/01/31 13:48:04;;;;;;;18.52;3.60;;;;;;;;;;6254298;22;20028;-75
2023/01/31 13:50:49;;;;;;;21.88;3.30;;;;;;;;;;6231682;23;20023;-77
2023/01/31 13:53:18;;;;;;;18.70;4.10;;;;;;;;;;6230084;23;20214;-76
2023/01/31 13:55:46;;;;;;;18.40;3.75;;;;;;;;;;6205498;23;20106;-76
2023/01/31 13:58:15;;;;;;;17.30;3.80;;;;;;;;;;6240503;23;20024;-77
2023/01/31 14:00:43;;;;;;;26.65;4.10;;;;;;;;;;6212171;23;20019;-76
2023/01/31 14:03:14;;;;;;;16.77;3.58;;;;;;;;;;6202314;23;20377;-76
2023/01/31 14:05:40;;;;;;;21.50;4.05;;;;;;;;;;6176479;23;20118;-76
2023/01/31 14:08:24;;;;;;;22.65;3.40;;;;;;;;;;6201865;23;20129;-76
2023/01/31 14:10:50;;;;;;;;;;;;;;;;;;6202405;23;20062;-76
2023/01/31 14:13:24;;;;;;;23.08;4.40;;;;;;;;;;6228078;23;19915;-77
2023/01/31 14:15:51;;;;;;;21.30;3.67;;;;;;;;;;6201049;23;20059;-76
2023/01/31 14:18:35;;;;;;;27.45;4.28;;;;;;;;;;6200962;23;20048;-77
2023/01/31 14:21:37;;;;;;;27.42;5.18;;;;;;;;;;6176014;23;20024;-76
2023/01/31 14:24:05;;;;;;;17.38;3.97;;;;;;;;;;6052372;23;20022;-77
2023/01/31 14:26:32;;;;;;;22.70;3.72;;;;;;;;;;6171934;23;20020;-75
2023/01/31 14:28:58;;;;;;;21.52;4.28;;;;;;;;;;6198834;23;20020;-76
2023/01/31 14:31:26;;;;;;;20.05;3.47;;;;;;;;;;6198763;23;20023;-76
2023/01/31 14:33:56;;;;;;;29.38;5.40;;;;;;;;;;6173143;23;20020;-76
2023/01/31 14:36:25;;;;;;;22.52;4.30;;;;;;;;;;6198828;23;20068;-77
2023/01/31 14:38:57;;;;;;;19.38;3.65;;;;;;;;;;6199295;23;20074;-76
2023/01/31 14:41:39;;;;;;;26.50;4.20;;;;;;;;;;6175296;23;20023;-75
2023/01/31 14:44:15;;;;;;;19.75;3.63;;;;;;;;;;6203264;23;20066;-76
2023/01/31 14:46:47;;;;;;;20.40;4.22;;;;;;;;;;6230754;23;20766;-76
2023/01/31 14:49:35;;;;;;;17.33;3.47;;;;;;;;;;6205762;23;20016;-76
2023/01/31 14:52:10;;;;;;;20.90;3.20;;;;;;;;;;6201135;23;20024;-77